Time;durP1;ratioP1;P1;durP2;ratioP2;P2;SDS_P1;SDS_P2;PMS_P1;PMS_P2;Temp;Humidity;BMP_temperature;BMP_pressure;BME280_temperature;BME280_humidity;BME280_pressure;Samples;Min_cycle;Max_cycle;Signal;HPM_P1;HPM_P2
2023/10/17 00:01:13;;;;;;;;;;;;;;;4.24;98.87;96639.09;5066028;28;19937;-69
2023/10/17 00:03:39;;;;;;;;;;;;;;;4.23;96.85;96629.66;5066090;28;19944;-69
2023/10/17 00:06:06;;;;;;;;;;;;;;;4.22;98.68;96622.03;5065391;28;19975;-74
2023/10/17 00:08:33;;;;;;;;;;;;;;;4.21;98.38;96623.03;5065354;28;19943;-73
2023/10/17 00:11:17;;;;;;;;;;;;;;;4.20;98.97;96621.41;5065833;28;20235;-80
2023/10/17 00:14:11;;;;;;;;;;;;;;;4.18;100.00;96619.00;5065658;28;19955;-80
2023/10/17 00:16:37;;;;;;;;;;;;;;;4.16;99.98;96604.56;5065204;28;19989;-80
2023/10/17 00:19:10;;;;;;;;;;;;;;;4.17;99.78;96606.19;5065124;28;19937;-80
2023/10/17 00:21:36;;;;;;;;;;;;;;;4.15;99.77;96601.16;5065623;28;20120;-80
2023/10/17 00:24:08;;;;;;;;;;;;;;;4.14;99.20;96594.38;5064994;28;20228;-80
2023/10/17 00:26:37;;;;;;;;;;;;;;;4.13;99.79;96592.75;5065277;28;19944;-75
2023/10/17 00:29:09;;;;;;;;;;;;;;;4.12;100.00;96598.94;5064915;28;19964;-69
2023/10/17 00:31:36;;;;;;;;;;;;;;;4.09;100.00;96598.47;5065689;28;20214;-69
2023/10/17 00:34:13;;;;;;;;;;;;;;;4.05;99.44;96585.84;5065447;28;19934;-70
2023/10/17 00:36:47;;;;;;;;;;;;;;;4.02;100.00;96588.78;5065312;28;19939;-69
2023/10/17 00:39:29;;;;;;;;;;;;;;;3.99;100.00;96577.91;5065220;28;19941;-69
2023/10/17 00:44:40;;;;;;;;;;;;;;;3.90;100.00;96581.56;5064647;28;19939;-69
2023/10/17 00:47:11;;;;;;;;;;;;;;;3.91;100.00;96572.81;5064645;28;20191;-72
2023/10/17 00:49:41;;;;;;;;;;;;;;;3.92;100.00;96567.44;5065330;28;20191;-72
2023/10/17 00:52:24;;;;;;;;;;;;;;;3.94;100.00;96564.69;5064410;28;19938;-72
2023/10/17 00:54:53;;;;;;;;;;;;;;;3.94;100.00;96567.28;5064088;28;20195;-72
2023/10/17 00:57:20;;;;;;;;;;;;;;;3.93;100.00;96566.47;5064365;28;19946;-72
2023/10/17 00:59:53;;;;;;;;;;;;;;;3.91;100.00;96560.66;5064327;28;19935;-72
2023/10/17 01:02:29;;;;;;;;;;;;;;;3.90;100.00;96558.22;5064845;28;20112;-76
2023/10/17 01:04:58;;;;;;;;;;;;;;;3.86;100.00;96561.16;5064590;28;19940;-80
2023/10/17 01:07:31;;;;;;;;;;;;;;;3.82;100.00;96553.88;5064186;28;19938;-80
2023/10/17 01:10:09;;;;;;;;;;;;;;;3.75;99.81;96558.16;5064359;28;19939;-80
2023/10/17 01:12:36;;;;;;;;;;;;;;;3.69;100.00;96557.03;5064660;28;19959;-80
2023/10/17 01:15:02;;;;;;;;;;;;;;;3.62;100.00;96558.72;5064113;28;19939;-80
2023/10/17 01:17:34;;;;;;;;;;;;;;;3.59;99.90;96561.63;5063700;28;19992;-80
2023/10/17 01:20:14;;;;;;;;;;;;;;;3.55;100.00;96555.19;5064651;28;19936;-71
2023/10/17 01:22:42;;;;;;;;;;;;;;;3.50;100.00;96552.31;5064575;28;19943;-82
2023/10/17 01:25:20;;;;;;;;;;;;;;;3.44;99.67;96546.00;5064501;28;19933;-80
2023/10/17 01:27:45;;;;;;;;;;;;;;;3.40;99.75;96537.78;5064585;28;19940;-83
2023/10/17 01:30:11;;;;;;;;;;;;;;;3.36;100.00;96531.31;5064473;28;19943;-80
2023/10/17 01:32:37;;;;;;;;;;;;;;;3.33;100.00;96526.47;5063824;28;19992;-80
2023/10/17 01:35:03;;;;;;;;;;;;;;;3.29;100.00;96527.78;5064472;28;19952;-80
2023/10/17 01:37:29;;;;;;;;;;;;;;;3.25;100.00;96529.09;5064405;28;19934;-80
2023/10/17 01:39:55;;;;;;;;;;;;;;;3.22;100.00;96521.66;5063858;28;19940;-78
2023/10/17 01:42:21;;;;;;;;;;;;;;;3.17;100.00;96522.19;5064281;28;20003;-79
2023/10/17 01:44:47;;;;;;;;;;;;;;;3.14;100.00;96524.28;5063834;28;20133;-78
2023/10/17 01:47:14;;;;;;;;;;;;;;;3.11;100.00;96517.66;5064029;28;19987;-79
2023/10/17 01:49:40;;;;;;;;;;;;;;;3.07;100.00;96529.34;5064255;28;19941;-77
2023/10/17 01:52:08;;;;;;;;;;;;;;;3.04;100.00;96525.31;5066287;28;19940;-77
2023/10/17 01:54:36;;;;;;;;;;;;;;;3.01;100.00;96536.00;5067829;28;19955;-77
2023/10/17 01:57:06;;;;;;;;;;;;;;;2.99;100.00;96537.94;5067838;28;19934;-84
2023/10/17 01:59:34;;;;;;;;;;;;;;;2.96;100.00;96535.72;5068606;28;19940;-85
2023/10/17 02:02:03;;;;;;;;;;;;;;;2.95;100.00;96534.06;5067777;28;19945;-82
2023/10/17 02:04:30;;;;;;;;;;;;;;;2.93;100.00;96527.44;5067685;28;19935;-84
2023/10/17 02:06:56;;;;;;;;;;;;;;;2.91;100.00;96527.63;5068041;28;19941;-84
2023/10/17 02:11:55;;;;;;;;;;;;;;;2.89;100.00;96524.38;5068394;28;19938;-83
2023/10/17 02:14:25;;;;;;;;;;;;;;;2.84;100.00;96522.31;5067413;28;20136;-83
2023/10/17 02:16:51;;;;;;;;;;;;;;;2.83;100.00;96533.66;5067437;28;19940;-71
2023/10/17 02:19:19;;;;;;;;;;;;;;;2.80;100.00;96546.13;5067925;28;19955;-72
2023/10/17 02:21:49;;;;;;;;;;;;;;;2.78;100.00;96540.28;5067334;28;19941;-72
2023/10/17 02:24:19;;;;;;;;;;;;;;;2.77;100.00;96536.06;5067299;28;19935;-72
2023/10/17 02:27:00;;;;;;;;;;;;;;;2.74;100.00;96536.41;5067279;28;19934;-71
2023/10/17 02:29:29;;;;;;;;;;;;;;;2.71;100.00;96540.16;5067737;28;19930;-72
2023/10/17 02:31:55;;;;;;;;;;;;;;;2.69;100.00;96547.28;5067152;28;19935;-72
2023/10/17 02:34:22;;;;;;;;;;;;;;;2.70;100.00;96540.31;5067240;28;19963;-73
2023/10/17 02:36:48;;;;;;;;;;;;;;;2.66;100.00;96539.81;5067115;28;20216;-81
2023/10/17 02:39:14;;;;;;;;;;;;;;;2.68;100.00;96543.06;5067063;28;19930;-81
2023/10/17 02:41:45;;;;;;;;;;;;;;;2.66;100.00;96539.81;5066994;28;19964;-80
2023/10/17 02:44:13;;;;;;;;;;;;;;;2.62;100.00;96547.13;5067774;28;19993;-78
2023/10/17 02:46:41;;;;;;;;;;;;;;;2.61;100.00;96540.31;5067060;28;19944;-79
2023/10/17 02:49:07;;;;;;;;;;;;;;;2.61;100.00;96539.53;5066763;28;19967;-78
2023/10/17 02:51:33;;;;;;;;;;;;;;;2.60;100.00;96540.47;5067581;28;19944;-81
2023/10/17 02:53:59;;;;;;;;;;;;;;;2.57;100.00;96544.22;5067232;28;19952;-72
2023/10/17 02:56:26;;;;;;;;;;;;;;;2.56;100.00;96541.78;5066689;28;19955;-81
2023/10/17 02:59:09;;;;;;;;;;;;;;;2.54;100.00;96541.97;5067230;28;19933;-80
2023/10/17 03:01:40;;;;;;;;;;;;;;;2.53;100.00;96548.09;5067154;28;19932;-80
2023/10/17 03:04:09;;;;;;;;;;;;;;;2.53;100.00;96549.91;5065372;28;19937;-78
2023/10/17 03:06:43;;;;;;;;;;;;;;;2.52;100.00;96546.50;5067064;28;19936;-78
2023/10/17 03:11:50;;;;;;;;;;;;;;;2.52;100.00;96540.50;5067375;28;19938;-81
2023/10/17 03:14:19;;;;;;;;;;;;;;;2.53;100.00;96536.94;5066616;28;20111;-78
2023/10/17 03:16:52;;;;;;;;;;;;;;;2.52;100.00;96536.16;5066347;28;20129;-76
2023/10/17 03:19:19;;;;;;;;;;;;;;;2.51;100.00;96533.72;5066569;28;19943;-79
2023/10/17 03:21:46;;;;;;;;;;;;;;;2.52;100.00;96535.31;5066498;28;19949;-77
2023/10/17 03:24:13;;;;;;;;;;;;;;;2.52;100.00;96540.50;5066244;28;20202;-75
2023/10/17 03:26:39;;;;;;;;;;;;;;;2.55;100.00;96540.19;5066100;28;19934;-74
2023/10/17 03:29:13;;;;;;;;;;;;;;;2.58;100.00;96539.84;5066116;28;19944;-71
2023/10/17 03:31:42;;;;;;;;;;;;;;;2.59;100.00;96531.91;5066552;28;19939;-72
2023/10/17 03:34:12;;;;;;;;;;;;;;;2.61;100.00;96552.47;5066401;28;19963;-73
2023/10/17 03:36:41;;;;;;;;;;;;;;;2.61;100.00;96547.28;5065967;28;20041;-72
2023/10/17 03:39:51;;;;;;;;;;;;;;;2.57;100.00;96540.84;5065908;28;19934;-72
2023/10/17 03:41:56;;;;;;;;;;;;;;;2.54;100.00;96541.97;5057963;28;20221;-72
2023/10/17 03:44:29;;;;;;;;;;;;;;;2.54;100.00;96535.97;5065765;28;19979;-72
2023/10/17 03:46:59;;;;;;;;;;;;;;;2.51;100.00;96534.53;5066232;28;19935;-73
2023/10/17 03:49:36;;;;;;;;;;;;;;;2.50;100.00;96532.09;5066275;28;19943;-75
2023/10/17 03:52:04;;;;;;;;;;;;;;;2.49;100.00;96539.06;5065994;28;19951;-69
2023/10/17 03:54:30;;;;;;;;;;;;;;;2.46;100.00;96536.81;5066065;28;19943;-70
2023/10/17 03:56:56;;;;;;;;;;;;;;;2.45;100.00;96527.41;5066394;28;20264;-69
2023/10/17 03:59:41;;;;;;;;;;;;;;;2.42;100.00;96536.31;5065582;28;19957;-70
2023/10/17 04:02:18;;;;;;;;;;;;;;;2.43;100.00;96534.53;5065577;28;19934;-70
2023/10/17 04:04:53;;;;;;;;;;;;;;;2.43;100.00;96534.53;5066273;28;19936;-69
2023/10/17 04:07:22;;;;;;;;;;;;;;;2.44;100.00;96525.81;5065972;28;19940;-72
2023/10/17 04:12:38;;;;;;;;;;;;;;;2.43;100.00;96537.13;5065355;28;19956;-82
2023/10/17 04:15:07;;;;;;;;;;;;;;;2.41;100.00;96529.50;5065273;28;19932;-81
2023/10/17 04:17:36;;;;;;;;;;;;;;;2.42;100.00;96522.59;5065744;28;19947;-77
2023/10/17 04:20:11;;;;;;;;;;;;;;;2.43;100.00;96522.38;5065164;28;19961;-76
2023/10/17 04:22:38;;;;;;;;;;;;;;;2.42;100.00;96520.00;5065676;28;19994;-80
2023/10/17 04:25:20;;;;;;;;;;;;;;;2.41;100.00;96511.41;5065163;28;20102;-77
2023/10/17 04:27:51;;;;;;;;;;;;;;;2.42;100.00;96520.00;5065589;28;19938;-69
2023/10/17 04:30:22;;;;;;;;;;;;;;;2.42;100.00;96513.03;5065231;28;20188;-70
2023/10/17 04:32:52;;;;;;;;;;;;;;;2.43;100.00;96511.25;5065640;28;19937;-69
2023/10/17 04:35:20;;;;;;;;;;;;;;;2.42;100.00;96505.25;5065559;28;19964;-69
2023/10/17 04:38:09;;;;;;;;;;;;;;;2.43;100.00;96503.47;5064803;28;19938;-70
2023/10/17 04:40:42;;;;;;;;;;;;;;;2.45;100.00;96493.75;5065294;28;19939;-70
2023/10/17 04:43:43;;;;;;;;;;;;;;;2.47;100.00;96498.78;5064724;28;19936;-72
2023/10/17 04:45:56;;;;;;;;;;;;;;;2.47;100.00;96501.38;5064653;28;20133;-72
2023/10/17 04:48:32;;;;;;;;;;;;;;;2.47;100.00;96498.78;5064590;28;20006;-73
2023/10/17 04:51:07;;;;;;;;;;;;;;;2.47;100.00;96504.75;5065410;28;19941;-72
2023/10/17 04:53:38;;;;;;;;;;;;;;;2.51;100.00;96510.44;5064957;28;19957;-71
2023/10/17 04:56:16;;;;;;;;;;;;;;;2.53;100.00;96495.53;5064816;28;19933;-72
2023/10/17 05:01:35;;;;;;;;;;;;;;;2.54;100.00;96489.38;5065246;28;20243;-78
2023/10/17 05:07:07;;;;;;;;;;;;;;;2.57;100.00;96482.09;5064882;28;19936;-75
2023/10/17 06:17:59;;;;;;;;;;;;;;;2.64;100.00;96495.97;5063732;28;19935;-75
2023/10/17 06:23:24;;;;;;;;;;;;;;;2.63;100.00;96499.53;5063707;28;19943;-75
2023/10/17 06:28:34;;;;;;;;;;;;;;;2.62;100.00;96495.34;5063450;28;19936;-75
2023/10/17 06:34:00;;;;;;;;;;;;;;;2.66;100.00;96502.78;5063788;28;19958;-87
2023/10/17 06:36:29;;;;;;;;;;;;;;;2.69;100.00;96508.44;5063337;28;19937;-87
2023/10/17 06:38:56;;;;;;;;;;;;;;;2.72;100.00;96509.88;5067492;28;19942;-82
2023/10/17 06:41:28;;;;;;;;;;;;;;;2.75;100.00;96517.31;5066999;28;19940;-84
2023/10/17 06:44:06;;;;;;;;;;;;;;;2.80;100.00;96517.63;5067039;28;20220;-83
2023/10/17 06:46:48;;;;;;;;;;;;;;;2.85;100.00;96510.94;5067932;28;20113;-88
2023/10/17 06:52:19;;;;;;;;;;;;;;;2.98;100.00;96520.81;5046135;28;19944;-81
2023/10/17 06:54:58;;;;;;;;;;;;;;;3.05;100.00;96524.31;5067490;28;20129;-78
2023/10/17 06:57:24;;;;;;;;;;;;;;;3.10;100.00;96531.59;5067553;28;20231;-78
2023/10/17 06:59:54;;;;;;;;;;;;;;;3.14;100.00;96517.31;5066695;28;20124;-77
2023/10/17 07:02:41;;;;;;;;;;;;;;;3.20;100.00;96521.03;5066659;28;19943;-77
2023/10/17 07:05:08;;;;;;;;;;;;;;;3.28;100.00;96528.75;5067423;28;19940;-79
2023/10/17 07:07:41;;;;;;;;;;;;;;;3.35;100.00;96534.06;5067095;28;19988;-77
2023/10/17 07:10:24;;;;;;;;;;;;;;;3.44;100.00;96530.44;5067121;28;19935;-77
2023/10/17 07:13:22;;;;;;;;;;;;;;;3.55;100.00;96526.66;5066512;28;19935;-74
2023/10/17 07:15:52;;;;;;;;;;;;;;;3.72;100.00;96517.81;5057353;28;20131;-75
2023/10/17 07:21:16;;;;;;;;;;;;;;;4.01;100.00;96524.06;5067094;28;19950;-73
2023/10/17 07:23:45;;;;;;;;;;;;;;;4.15;100.00;96525.09;5066251;28;19940;-73
2023/10/17 07:26:18;;;;;;;;;;;;;;;4.31;100.00;96513.78;5066699;28;20233;-74
2023/10/17 07:28:44;;;;;;;;;;;;;;;4.46;100.00;96504.22;5066683;28;19950;-73
2023/10/17 07:31:13;;;;;;;;;;;;;;;4.44;100.00;96490.59;5066142;28;19950;-74
2023/10/17 07:33:43;;;;;;;;;;;;;;;4.56;100.00;96494.38;5065934;28;19951;-74
2023/10/17 07:36:18;;;;;;;;;;;;;;;4.58;100.00;96469.03;5066002;28;19950;-75
2023/10/17 07:38:45;;;;;;;;;;;;;;;4.59;100.00;96475.03;5066560;28;20079;-74
2023/10/17 07:41:14;;;;;;;;;;;;;;;4.57;100.00;96487.38;5065906;28;19947;-74
2023/10/17 07:43:46;;;;;;;;;;;;;;;4.63;100.00;96490.06;5066080;28;19937;-74
2023/10/17 07:46:28;;;;;;;;;;;;;;;4.69;100.00;96485.94;5065696;28;19933;-71
2023/10/17 07:49:03;;;;;;;;;;;;;;;4.80;100.00;96493.28;5064802;28;19961;-75
2023/10/17 07:51:29;;;;;;;;;;;;;;;4.90;100.00;96476.63;5066106;28;19940;-80
2023/10/17 07:53:55;;;;;;;;;;;;;;;4.98;100.00;96466.13;5065616;28;19952;-79
2023/10/17 07:56:21;;;;;;;;;;;;;;;5.11;100.00;96475.88;5065683;28;20088;-80
2023/10/17 07:58:56;;;;;;;;;;;;;;;5.27;100.00;96476.47;5065604;28;19944;-78
2023/10/17 08:01:59;;;;;;;;;;;;;;;5.34;100.00;96454.94;5066089;28;19938;-79
2023/10/17 08:04:17;;;;;;;;;;;;;;;5.29;100.00;96458.91;5063474;28;20138;-75
2023/10/17 08:06:44;;;;;;;;;;;;;;;5.24;100.00;96469.03;5065388;28;19945;-72
2023/10/17 08:11:52;;;;;;;;;;;;;;;5.31;100.00;96460.50;5066148;28;19938;-78
2023/10/17 08:14:31;;;;;;;;;;;;;;;5.41;100.00;96471.41;5065738;28;19944;-79
2023/10/17 08:16:58;;;;;;;;;;;;;;;5.55;100.00;96465.34;5065737;28;19955;-78
2023/10/17 08:19:29;;;;;;;;;;;;;;;5.64;100.00;96468.63;5065123;28;19935;-79
2023/10/17 08:24:40;;;;;;;;;;;;;;;5.72;100.00;96468.50;5065345;28;20251;-76
2023/10/17 08:30:13;;;;;;;;;;;;;;;5.72;100.00;96465.09;5042895;28;19940;-73
2023/10/17 08:32:39;;;;;;;;;;;;;;;5.67;100.00;96450.06;5065187;28;19934;-73
2023/10/17 08:35:20;;;;;;;;;;;;;;;5.64;100.00;96455.63;5064688;28;20225;-74
2023/10/17 08:37:47;;;;;;;;;;;;;;;5.65;100.00;96446.84;5065335;28;20112;-73
2023/10/17 08:40:29;;;;;;;;;;;;;;;5.65;100.00;96452.03;5064731;28;19938;-74
2023/10/17 08:42:56;;;;;;;;;;;;;;;5.69;100.00;96463.66;5064993;28;19937;-71
2023/10/17 08:45:26;;;;;;;;;;;;;;;5.68;100.00;96452.44;5064619;28;19961;-72
2023/10/17 08:48:01;;;;;;;;;;;;;;;5.70;100.00;96453.06;5064847;28;19964;-73
2023/10/17 08:50:30;;;;;;;;;;;;;;;5.80;100.00;96457.16;5065157;28;19946;-72
2023/10/17 08:52:59;;;;;;;;;;;;;;;5.82;100.00;96444.78;5064477;28;19934;-73
2023/10/17 08:55:27;;;;;;;;;;;;;;;5.85;100.00;96455.59;5064895;28;20129;-73
2023/10/17 08:57:53;;;;;;;;;;;;;;;5.88;100.00;96439.63;5064481;28;20102;-72
2023/10/17 09:00:39;;;;;;;;;;;;;;;5.87;100.00;96435.41;5062777;28;20222;-72
2023/10/17 09:03:09;;;;;;;;;;;;;;;5.92;100.00;96436.63;5065222;28;19936;-72
2023/10/17 09:05:49;;;;;;;;;;;;;;;5.92;100.00;96440.03;5064313;28;19934;-72
2023/10/17 09:08:21;;;;;;;;;;;;;;;5.98;100.00;96431.50;5064279;28;19931;-72
2023/10/17 09:10:51;;;;;;;;;;;;;;;5.99;100.00;96434.94;5064809;28;19930;-72
2023/10/17 09:16:17;;;;;;;;;;;;;;;6.18;100.00;96442.06;5064103;28;19961;-72
2023/10/17 09:18:42;;;;;;;;;;;;;;;6.34;100.00;96427.13;5062786;28;19934;-79
2023/10/17 09:21:08;;;;;;;;;;;;;;;6.33;100.00;96428.16;5064134;28;19938;-74
2023/10/17 09:23:38;;;;;;;;;;;;;;;6.37;100.00;96430.16;5064498;28;19933;-75
2023/10/17 09:26:10;;;;;;;;;;;;;;;6.48;100.00;96423.63;5064833;28;19939;-75
2023/10/17 09:28:36;;;;;;;;;;;;;;;6.58;100.00;96423.28;5064032;28;20126;-75
2023/10/17 09:31:08;;;;;;;;;;;;;;;6.66;100.00;96425.72;5064001;28;19942;-75
2023/10/17 09:33:43;;;;;;;;;;;;;;;6.69;100.00;96415.69;5063885;28;19931;-75
2023/10/17 09:36:09;;;;;;;;;;;;;;;6.74;100.00;96420.34;5064435;28;19956;-74
2023/10/17 09:38:41;;;;;;;;;;;;;;;6.81;100.00;96422.97;5064681;28;19991;-79
2023/10/17 09:41:08;;;;;;;;;;;;;;;6.89;100.00;96433.25;5064428;28;19940;-74
2023/10/17 09:43:36;;;;;;;;;;;;;;;6.98;99.58;96421.63;5064366;28;19938;-74
2023/10/17 09:46:02;;;;;;;;;;;;;;;7.05;100.00;96425.06;5063833;28;19937;-74
2023/10/17 09:48:41;;;;;;;;;;;;;;;7.20;100.00;96437.97;5063566;28;19959;-74
2023/10/17 09:51:09;;;;;;;;;;;;;;;7.32;99.45;96422.53;5064594;28;19946;-74
2023/10/17 09:53:37;;;;;;;;;;;;;;;7.37;97.86;96406.28;5063704;28;19937;-74
2023/10/17 09:56:06;;;;;;;;;;;;;;;7.42;100.00;96419.53;5063664;28;20257;-71
2023/10/17 09:58:37;;;;;;;;;;;;;;;7.45;99.63;96419.94;5064193;28;19947;-75
2023/10/17 10:01:20;;;;;;;;;;;;;;;7.55;99.69;96416.94;5064275;28;19953;-73
2023/10/17 10:03:47;;;;;;;;;;;;;;;7.68;99.70;96411.72;5064413;28;19942;-74
2023/10/17 10:06:23;;;;;;;;;;;;;;;7.83;99.96;96406.34;5064134;28;19939;-74
2023/10/17 10:08:54;;;;;;;;;;;;;;;7.95;95.63;96385.63;5063836;28;20222;-74
2023/10/17 10:11:20;;;;;;;;;;;;;;;7.99;97.35;96386.81;5064061;28;19935;-74
2023/10/17 10:14:08;;;;;;;;;;;;;;;8.00;95.96;96377.19;5067056;28;19939;-74
2023/10/17 10:16:46;;;;;;;;;;;;;;;8.08;97.52;96390.84;5067749;28;19942;-73
2023/10/17 10:19:14;;;;;;;;;;;;;;;8.26;97.98;96392.03;5067383;28;19937;-73
2023/10/17 10:22:00;;;;;;;;;;;;;;;8.45;97.52;96378.13;5066312;28;19935;-73
2023/10/17 10:24:28;;;;;;;;;;;;;;;8.67;95.64;96367.38;5067324;28;19943;-73
2023/10/17 10:27:10;;;;;;;;;;;;;;;8.79;93.46;96344.81;5067287;28;19937;-73
2023/10/17 10:29:37;;;;;;;;;;;;;;;8.81;93.80;96355.06;5066191;28;19935;-73
2023/10/17 10:32:23;;;;;;;;;;;;;;;8.94;95.08;96363.66;5067292;28;19943;-75
2023/10/17 10:34:49;;;;;;;;;;;;;;;9.08;90.80;96340.03;5060109;28;19965;-71
2023/10/17 10:37:16;;;;;;;;;;;;;;;9.13;92.75;96345.44;5067943;28;19942;-71
2023/10/17 10:40:01;;;;;;;;;;;;;;;9.26;94.99;96357.63;5065944;28;19941;-71
2023/10/17 10:42:39;;;;;;;;;;;;;;;9.56;94.73;96355.22;5067743;28;19940;-71
2023/10/17 10:45:05;;;;;;;;;;;;;;;9.80;90.79;96327.41;5067291;28;19945;-71
2023/10/17 10:47:31;;;;;;;;;;;;;;;10.07;91.58;96342.88;5067323;28;20287;-71
2023/10/17 10:50:01;;;;;;;;;;;;;;;10.25;89.94;96323.75;5067459;28;19947;-81
2023/10/17 10:52:27;;;;;;;;;;;;;;;10.34;86.89;96304.13;5067408;28;19931;-75
2023/10/17 10:54:59;;;;;;;;;;;;;;;10.53;89.81;96318.81;5065925;28;20014;-76
2023/10/17 10:57:26;;;;;;;;;;;;;;;10.78;87.60;96299.53;5067037;28;19934;-76
2023/10/17 10:59:52;;;;;;;;;;;;;;;10.94;86.72;96298.09;5066941;28;19934;-75
2023/10/17 11:02:20;;;;;;;;;;;;;;;11.13;89.22;96307.53;5066711;28;20214;-76
2023/10/17 11:04:47;;;;;;;;;;;;;;;11.28;85.59;96272.19;5066493;28;19943;-75
2023/10/17 11:07:20;;;;;;;;;;;;;;;11.42;85.90;96276.16;5066595;28;19935;-75
2023/10/17 11:09:59;;;;;;;;;;;;;;;11.46;84.29;96266.81;5066429;28;19957;-75
2023/10/17 11:12:25;;;;;;;;;;;;;;;11.53;86.44;96283.28;5067054;28;19941;-74
2023/10/17 11:15:11;;;;;;;;;;;;;;;11.65;86.74;96288.50;5066287;28;19960;-72
2023/10/17 11:17:37;;;;;;;;;;;;;;;11.74;86.18;96286.38;5066583;28;19934;-73
2023/10/17 11:20:12;;;;;;;;;;;;;;;11.73;84.60;96277.66;5066753;28;19942;-73
2023/10/17 11:22:40;;;;;;;;;;;;;;;11.75;85.06;96290.59;5066370;28;19934;-73
2023/10/17 11:25:08;;;;;;;;;;;;;;;11.75;85.31;96280.88;5065164;28;19938;-73
2023/10/17 11:27:34;;;;;;;;;;;;;;;11.77;87.34;96288.53;5066414;28;19938;-75
2023/10/17 11:30:00;;;;;;;;;;;;;;;11.76;86.89;96290.34;5066130;28;19932;-71
2023/10/17 11:32:27;;;;;;;;;;;;;;;11.80;86.77;96282.84;5066033;28;20246;-72
2023/10/17 11:35:03;;;;;;;;;;;;;;;11.80;86.13;96277.56;5065870;28;19958;-73
2023/10/17 11:37:29;;;;;;;;;;;;;;;11.82;86.00;96280.75;5066781;28;19944;-71
2023/10/17 11:40:15;;;;;;;;;;;;;;;11.81;83.72;96257.34;5065896;28;19935;-72
2023/10/17 11:42:42;;;;;;;;;;;;;;;11.79;86.80;96279.38;5066133;28;19951;-71
2023/10/17 11:45:20;;;;;;;;;;;;;;;11.83;86.08;96281.56;5065828;28;19933;-73
2023/10/17 11:47:46;;;;;;;;;;;;;;;11.88;88.06;96289.53;5065904;28;19966;-71
2023/10/17 11:50:11;;;;;;;;;;;;;;;11.93;85.96;96271.31;5066259;28;19944;-82
2023/10/17 11:52:40;;;;;;;;;;;;;;;11.90;82.70;96248.91;5066420;28;19966;-82
2023/10/17 11:55:11;;;;;;;;;;;;;;;11.88;87.01;96274.59;5065492;28;19957;-82
2023/10/17 11:57:37;;;;;;;;;;;;;;;11.85;86.09;96269.00;5065704;28;19939;-82
2023/10/17 12:00:19;;;;;;;;;;;;;;;11.86;88.07;96281.09;5065512;28;19944;-82
2023/10/17 12:02:48;;;;;;;;;;;;;;;11.85;84.84;96258.50;5066030;28;19945;-82
2023/10/17 12:05:18;;;;;;;;;;;;;;;11.87;88.69;96288.75;5065429;28;19941;-82
2023/10/17 12:07:53;;;;;;;;;;;;;;;11.92;88.96;96288.88;5064962;28;19951;-73
2023/10/17 12:10:19;;;;;;;;;;;;;;;11.98;89.19;96284.53;5065875;28;19933;-73
2023/10/17 12:12:46;;;;;;;;;;;;;;;12.00;89.66;96286.94;5065535;28;19934;-73
2023/10/17 12:15:20;;;;;;;;;;;;;;;12.02;88.03;96277.00;5065684;28;19950;-73
2023/10/17 12:17:48;;;;;;;;;;;;;;;12.01;87.43;96268.31;5065251;28;19935;-73
2023/10/17 12:20:14;;;;;;;;;;;;;;;12.03;87.43;96273.34;5065128;28;19945;-71
2023/10/17 12:22:40;;;;;;;;;;;;;;;12.04;88.75;96281.00;5065561;28;19935;-73
2023/10/17 12:25:06;;;;;;;;;;;;;;;12.02;84.20;96243.63;5065011;28;20131;-80
2023/10/17 12:27:32;;;;;;;;;;;;;;;11.88;87.10;96258.84;5065523;28;19941;-78
2023/10/17 12:29:58;;;;;;;;;;;;;;;11.86;85.53;96254.81;5064987;28;19933;-77
2023/10/17 12:32:24;;;;;;;;;;;;;;;11.84;86.89;96264.75;5064875;28;19935;-78
2023/10/17 12:34:54;;;;;;;;;;;;;;;11.89;88.05;96270.16;5064464;28;19956;-78
2023/10/17 12:37:20;;;;;;;;;;;;;;;11.98;87.55;96271.41;5065514;28;20098;-81
2023/10/17 12:39:47;;;;;;;;;;;;;;;12.09;88.30;96273.19;5064833;28;19943;-80
2023/10/17 12:42:13;;;;;;;;;;;;;;;12.22;88.61;96266.91;5065294;28;19945;-74
2023/10/17 12:44:39;;;;;;;;;;;;;;;12.31;89.01;96262.88;5064715;28;19945;-80
2023/10/17 12:47:05;;;;;;;;;;;;;;;12.36;87.04;96241.13;5064549;28;19940;-81
2023/10/17 12:49:31;;;;;;;;;;;;;;;12.30;85.00;96226.28;5065407;28;20240;-80
2023/10/17 12:52:00;;;;;;;;;;;;;;;12.23;86.75;96250.09;5064597;28;19943;-80
2023/10/17 12:54:26;;;;;;;;;;;;;;;12.29;87.95;96237.88;5064512;28;19945;-82
2023/10/17 12:56:52;;;;;;;;;;;;;;;12.37;88.17;96245.38;5065227;28;19942;-80
2023/10/17 12:59:18;;;;;;;;;;;;;;;12.46;86.16;96227.41;5064465;28;19946;-80
2023/10/17 13:01:44;;;;;;;;;;;;;;;12.51;87.54;96232.75;5064424;28;19934;-84
2023/10/17 13:04:11;;;;;;;;;;;;;;;12.58;87.92;96230.78;5064405;28;20233;-75
2023/10/17 13:06:38;;;;;;;;;;;;;;;12.65;88.16;96233.25;5064872;28;19962;-75
2023/10/17 13:09:04;;;;;;;;;;;;;;;12.63;83.17;96203.75;5064806;28;19939;-75
2023/10/17 13:11:30;;;;;;;;;;;;;;;12.64;87.22;96223.75;5064250;28;20252;-75
2023/10/17 13:13:59;;;;;;;;;;;;;;;12.72;87.13;96218.13;5064292;28;20126;-74
2023/10/17 13:16:28;;;;;;;;;;;;;;;12.79;86.61;96216.94;5064073;28;20136;-75
2023/10/17 13:18:57;;;;;;;;;;;;;;;12.88;86.57;96222.59;5064182;28;19940;-81
2023/10/17 13:21:26;;;;;;;;;;;;;;;12.88;85.25;96214.72;5064112;28;19946;-71
2023/10/17 13:23:52;;;;;;;;;;;;;;;12.94;85.40;96215.59;5064859;28;20106;-71
2023/10/17 13:26:19;;;;;;;;;;;;;;;12.98;86.84;96219.34;5064086;28;19932;-71
2023/10/17 13:28:45;;;;;;;;;;;;;;;13.05;86.65;96221.84;5064028;28;19934;-71
2023/10/17 13:31:12;;;;;;;;;;;;;;;13.09;85.78;96209.78;5064017;28;19939;-71
2023/10/17 13:33:49;;;;;;;;;;;;;;;13.04;84.27;96199.97;5063551;28;19957;-71
2023/10/17 13:36:20;;;;;;;;;;;;;;;13.04;85.41;96210.50;5063821;28;19960;-74
2023/10/17 13:38:45;;;;;;;;;;;;;;;13.05;84.12;96201.56;5063560;28;20214;-74
2023/10/17 13:41:15;;;;;;;;;;;;;;;13.03;83.19;96197.59;5064201;28;19934;-74
2023/10/17 13:43:41;;;;;;;;;;;;;;;12.96;81.29;96188.00;5064624;28;19935;-73
2023/10/17 13:46:08;;;;;;;;;;;;;;;12.93;83.81;96201.63;5064477;28;20116;-74
2023/10/17 13:48:34;;;;;;;;;;;;;;;12.95;86.03;96215.34;5069875;28;19964;-74
2023/10/17 13:51:01;;;;;;;;;;;;;;;13.04;85.18;96205.25;5070422;28;20134;-74
2023/10/17 13:53:27;;;;;;;;;;;;;;;13.04;81.37;96180.72;5071150;28;19940;-74
2023/10/17 13:55:54;;;;;;;;;;;;;;;13.08;83.88;96201.09;5070988;28;19952;-73
2023/10/17 13:58:20;;;;;;;;;;;;;;;13.11;85.20;96211.13;5070377;28;19944;-73
2023/10/17 14:00:51;;;;;;;;;;;;;;;13.21;83.93;96197.34;5070364;28;19959;-73
2023/10/17 14:03:17;;;;;;;;;;;;;;;13.34;84.84;96222.59;5071158;28;19964;-73
2023/10/17 14:05:47;;;;;;;;;;;;;;;13.50;85.37;96218.31;5071023;28;19935;-73
2023/10/17 14:08:14;;;;;;;;;;;;;;;13.66;82.91;96209.59;5070427;28;19940;-73
2023/10/17 14:10:43;;;;;;;;;;;;;;;13.72;80.42;96195.44;5070256;28;19943;-73
2023/10/17 14:13:16;;;;;;;;;;;;;;;13.82;82.17;96202.69;5070309;28;19940;-71
2023/10/17 14:15:42;;;;;;;;;;;;;;;13.94;83.46;96203.38;5070128;28;19954;-74
2023/10/17 14:18:14;;;;;;;;;;;;;;;13.97;80.70;96202.09;5071001;28;20206;-74
2023/10/17 14:21:04;;;;;;;;;;;;;;;14.00;81.92;96207.66;5070966;28;20107;-74
2023/10/17 14:23:29;;;;;;;;;;;;;;;14.06;79.52;96197.97;5070171;28;19944;-73
2023/10/17 14:26:07;;;;;;;;;;;;;;;13.99;81.02;96206.06;5070113;28;19943;-74
2023/10/17 14:28:36;;;;;;;;;;;;;;;13.98;80.92;96196.59;5070672;28;19955;-74
2023/10/17 14:31:03;;;;;;;;;;;;;;;13.96;80.09;96200.47;5070167;28;19938;-81
2023/10/17 14:33:32;;;;;;;;;;;;;;;13.87;78.99;96194.84;5070096;28;19937;-75
2023/10/17 14:36:04;;;;;;;;;;;;;;;13.79;80.10;96197.91;5069891;28;19988;-74
2023/10/17 14:38:32;;;;;;;;;;;;;;;13.74;79.59;96190.72;5070227;28;19942;-74
2023/10/17 14:40:58;;;;;;;;;;;;;;;13.67;81.45;96198.03;5070070;28;19941;-74
2023/10/17 14:43:25;;;;;;;;;;;;;;;13.58;80.07;96186.28;5070235;28;19965;-73
2023/10/17 14:45:53;;;;;;;;;;;;;;;13.53;79.71;96180.97;5069980;28;19949;-74
2023/10/17 14:48:20;;;;;;;;;;;;;;;13.52;82.01;96201.25;5069754;28;20255;-73
2023/10/17 14:50:46;;;;;;;;;;;;;;;13.54;81.66;96201.00;5070771;28;20131;-81
2023/10/17 14:53:11;;;;;;;;;;;;;;;13.55;82.15;96203.38;5069965;28;20239;-70
2023/10/17 14:55:38;;;;;;;;;;;;;;;13.60;82.36;96197.38;5070431;28;19959;-70